Time;durP1;ratioP1;P1;durP2;ratioP2;P2;SDS_P1;SDS_P2;PMS_P1;PMS_P2;Temp;Humidity;BMP_temperature;BMP_pressure;BME280_temperature;BME280_humidity;BME280_pressure;Samples;Min_cycle;Max_cycle;Signal;HPM_P1;HPM_P2
2020/12/11 00:00:03;;;;;;;1.25;1.02;;;4.30;99.90;;;;;;5014147;28;20635;-75
2020/12/11 00:02:29;;;;;;;2.78;2.58;;;4.40;99.90;;;;;;5014199;28;20577;-75
2020/12/11 00:04:54;;;;;;;2.92;1.40;;;4.40;99.90;;;;;;5013994;28;20234;-75
2020/12/11 00:07:20;;;;;;;1.27;1.23;;;4.20;99.90;;;;;;5012786;28;20175;-75
2020/12/11 00:09:45;;;;;;;1.17;1.17;;;4.30;99.90;;;;;;5012746;28;20165;-75
2020/12/11 00:12:12;;;;;;;1.75;1.65;;;4.30;99.90;;;;;;5013957;28;20216;-75
2020/12/11 00:14:37;;;;;;;1.27;1.27;;;4.20;99.90;;;;;;5012638;28;20200;-75
2020/12/11 00:17:03;;;;;;;2.33;1.17;;;4.20;99.90;;;;;;5013875;28;20175;-75
2020/12/11 00:19:29;;;;;;;0.43;0.43;;;4.10;99.90;;;;;;5013751;28;20206;-75
2020/12/11 00:21:54;;;;;;;0.52;0.52;;;4.20;99.90;;;;;;5013791;28;20247;-75
2020/12/11 00:24:20;;;;;;;0.30;0.30;;;4.10;99.90;;;;;;5012440;28;20196;-75
2020/12/11 00:26:46;;;;;;;1.95;1.85;;;4.20;99.90;;;;;;5012403;28;20616;-75
2020/12/11 00:29:11;;;;;;;0.75;0.75;;;4.10;99.90;;;;;;5013700;28;20214;-75
2020/12/11 00:31:38;;;;;;;2.05;1.95;;;4.10;99.90;;;;;;5013595;28;20172;-75
2020/12/11 00:34:04;;;;;;;1.58;1.48;;;4.00;99.90;;;;;;5013507;28;20181;-75
2020/12/11 00:36:29;;;;;;;0.82;0.82;;;3.90;99.90;;;;;;5013536;28;20179;-74
2020/12/11 00:38:55;;;;;;;1.40;1.35;;;3.90;99.90;;;;;;5013513;28;20192;-75
2020/12/11 00:41:21;;;;;;;0.80;0.80;;;4.10;99.90;;;;;;5013634;28;20177;-75
2020/12/11 00:43:46;;;;;;;3.85;0.73;;;4.30;99.90;;;;;;5013431;28;20217;-74
2020/12/11 00:46:13;;;;;;;0.63;0.63;;;4.20;99.90;;;;;;5013412;28;20164;-75
2020/12/11 00:48:39;;;;;;;0.32;0.32;;;4.10;99.90;;;;;;5013576;28;20214;-75
2020/12/11 00:51:04;;;;;;;1.23;1.13;;;3.90;99.90;;;;;;5013533;28;20248;-75
2020/12/11 00:53:30;;;;;;;2.63;2.42;;;3.90;99.90;;;;;;5013354;28;20251;-74
2020/12/11 00:55:56;;;;;;;4.28;1.17;;;3.80;99.90;;;;;;5013316;28;20164;-75
2020/12/11 00:58:22;;;;;;;2.20;1.30;;;3.70;99.90;;;;;;5012025;28;20169;-75
2020/12/11 01:00:47;;;;;;;1.15;1.10;;;3.80;99.90;;;;;;5013398;28;20226;-74
2020/12/11 01:03:13;;;;;;;0.88;0.88;;;3.90;99.90;;;;;;5013134;28;20620;-75
2020/12/11 01:05:38;;;;;;;0.30;0.30;;;3.80;99.90;;;;;;5013372;28;20283;-75
2020/12/11 01:08:05;;;;;;;0.38;0.38;;;3.90;99.90;;;;;;5013281;28;20620;-75
2020/12/11 01:10:32;;;;;;;0.73;0.73;;;3.80;99.90;;;;;;5013163;28;20255;-75
2020/12/11 01:12:57;;;;;;;0.52;0.52;;;3.80;99.90;;;;;;5013126;28;20212;-75
2020/12/11 01:15:23;;;;;;;1.02;1.02;;;3.80;99.90;;;;;;5011855;28;20203;-75
2020/12/11 01:17:49;;;;;;;1.65;1.15;;;3.80;99.90;;;;;;5011955;28;20165;-75
2020/12/11 01:20:15;;;;;;;0.57;0.57;;;3.90;99.90;;;;;;5013094;28;20290;-75
2020/12/11 01:22:40;;;;;;;0.40;0.40;;;3.90;99.90;;;;;;5013121;28;20631;-74
2020/12/11 01:25:06;;;;;;;2.45;2.28;;;3.90;99.90;;;;;;5012987;28;20208;-75
2020/12/11 01:27:31;;;;;;;0.88;0.88;;;3.90;99.90;;;;;;5013014;28;20176;-74
2020/12/11 01:29:57;;;;;;;0.83;0.83;;;3.80;99.90;;;;;;5013062;28;20172;-75
2020/12/11 01:32:22;;;;;;;5.78;1.20;;;3.70;99.90;;;;;;5013055;28;20179;-75
2020/12/11 01:34:48;;;;;;;1.05;1.05;;;3.70;99.90;;;;;;5012800;28;20718;-74
2020/12/11 01:37:13;;;;;;;3.92;1.65;;;3.70;99.90;;;;;;5013012;28;20169;-75
2020/12/11 01:39:39;;;;;;;2.03;1.92;;;3.70;99.90;;;;;;5011619;28;20231;-75
2020/12/11 01:42:12;;;;;;;1.90;1.42;;;3.60;99.90;;;;;;5013376;28;20168;-75
2020/12/11 01:44:46;;;;;;;4.50;1.75;;;3.70;99.90;;;;;;5012989;28;20655;-75
2020/12/11 01:47:12;;;;;;;0.52;0.52;;;3.70;99.90;;;;;;5013113;28;20309;-76
2020/12/11 01:49:38;;;;;;;1.92;1.77;;;4.00;99.90;;;;;;5012966;28;20168;-76
2020/12/11 01:52:04;;;;;;;0.95;0.95;;;4.00;99.90;;;;;;5012945;28;20240;-76
2020/12/11 01:54:30;;;;;;;1.75;1.65;;;3.90;99.90;;;;;;5012899;28;20219;-76
2020/12/11 01:57:00;;;;;;;2.83;1.20;;;4.00;99.90;;;;;;5011965;28;20173;-76
2020/12/11 01:59:40;;;;;;;1.10;0.88;;;3.90;99.90;;;;;;5012857;28;20562;-76
2020/12/11 02:02:08;;;;;;;2.65;1.23;;;3.90;99.90;;;;;;5012777;28;20175;-76
2020/12/11 02:04:35;;;;;;;0.68;0.68;;;4.20;99.90;;;;;;5012767;28;20546;-77
2020/12/11 02:07:01;;;;;;;2.08;1.98;;;4.20;99.90;;;;;;5013676;28;20171;-76
2020/12/11 02:09:29;;;;;;;0.82;0.82;;;4.20;99.90;;;;;;5016422;28;20161;-76
2020/12/11 02:11:55;;;;;;;2.28;2.13;;;4.10;99.90;;;;;;5015990;28;20228;-76
2020/12/11 02:14:20;;;;;;;0.40;0.40;;;4.10;99.90;;;;;;5015042;28;20211;-76
2020/12/11 02:16:46;;;;;;;0.93;0.93;;;4.10;99.90;;;;;;5015080;28;20177;-76
2020/12/11 02:19:13;;;;;;;0.63;0.63;;;4.30;99.90;;;;;;5014996;28;20295;-76
2020/12/11 02:21:38;;;;;;;0.65;0.65;;;4.10;99.90;;;;;;5014754;28;20175;-76
2020/12/11 02:24:04;;;;;;;1.25;1.25;;;4.20;99.90;;;;;;5014669;28;20192;-76
2020/12/11 02:26:30;;;;;;;2.65;1.75;;;4.20;99.90;;;;;;5014844;28;21061;-76
2020/12/11 02:28:55;;;;;;;1.02;1.00;;;4.20;99.90;;;;;;5014846;28;20226;-76
2020/12/11 02:31:21;;;;;;;0.45;0.45;;;4.10;99.90;;;;;;5014839;28;20165;-76
2020/12/11 02:33:46;;;;;;;0.50;0.50;;;4.10;99.90;;;;;;5013445;28;20247;-76
2020/12/11 02:36:12;;;;;;;0.70;0.70;;;4.10;99.90;;;;;;5014764;28;20161;-77
2020/12/11 02:38:38;;;;;;;0.40;0.40;;;4.10;99.90;;;;;;5014551;28;20200;-76
2020/12/11 02:41:03;;;;;;;0.30;0.30;;;4.00;99.90;;;;;;5014585;28;20177;-76
2020/12/11 02:43:36;;;;;;;0.70;0.70;;;4.00;99.90;;;;;;5014485;28;20176;-75
2020/12/11 02:46:03;;;;;;;0.30;0.30;;;4.10;99.90;;;;;;5014435;28;20227;-76
2020/12/11 02:48:29;;;;;;;0.63;0.63;;;4.20;99.90;;;;;;5014551;28;20169;-76
2020/12/11 02:50:56;;;;;;;0.57;0.52;;;4.40;99.90;;;;;;5014457;28;20222;-76
2020/12/11 02:53:22;;;;;;;0.70;0.70;;;4.20;99.90;;;;;;5014367;28;20636;-75
2020/12/11 02:55:47;;;;;;;0.80;0.80;;;4.20;99.90;;;;;;5014454;28;20240;-76
2020/12/11 02:58:13;;;;;;;0.30;0.30;;;4.30;99.90;;;;;;5014255;28;20250;-76
2020/12/11 03:00:38;;;;;;;0.45;0.45;;;4.30;99.90;;;;;;5014390;28;20173;-76
2020/12/11 03:03:04;;;;;;;0.70;0.70;;;4.30;99.90;;;;;;5014235;28;20521;-76
2020/12/11 03:05:29;;;;;;;0.75;0.73;;;4.30;99.90;;;;;;5012964;28;20670;-76
2020/12/11 03:07:55;;;;;;;0.55;0.55;;;4.20;99.90;;;;;;5014169;28;20164;-75
2020/12/11 03:10:21;;;;;;;1.30;1.15;;;4.20;99.90;;;;;;5014068;28;20180;-74
2020/12/11 03:12:46;;;;;;;0.80;0.80;;;4.20;99.90;;;;;;4994967;28;573783;-75
2020/12/11 03:15:12;;;;;;;6.05;1.40;;;4.20;99.90;;;;;;5014962;28;20231;-75
2020/12/11 03:17:37;;;;;;;2.40;1.83;;;4.20;99.90;;;;;;5014896;28;20168;-76
2020/12/11 03:20:03;;;;;;;3.38;2.33;;;4.30;99.90;;;;;;5013902;28;20208;-76
2020/12/11 03:22:28;;;;;;;0.30;0.30;;;4.30;99.90;;;;;;5014893;28;20161;-76
2020/12/11 03:24:54;;;;;;;4.03;1.52;;;4.30;99.90;;;;;;5014760;28;20192;-76
2020/12/11 03:27:19;;;;;;;0.57;0.57;;;4.50;99.90;;;;;;5014900;28;20173;-76
2020/12/11 03:29:45;;;;;;;0.95;0.95;;;4.60;99.90;;;;;;5014981;28;20196;-76
2020/12/11 03:32:10;;;;;;;0.80;0.80;;;4.80;99.90;;;;;;5014836;28;20165;-76
2020/12/11 03:34:36;;;;;;;1.00;1.00;;;4.60;99.90;;;;;;5014496;28;20263;-76
2020/12/11 03:37:02;;;;;;;1.33;0.95;;;4.40;99.90;;;;;;5014608;28;20183;-76
2020/12/11 03:39:27;;;;;;;0.38;0.38;;;4.30;99.90;;;;;;5014571;28;20193;-76
2020/12/11 03:41:53;;;;;;;0.93;0.93;;;4.30;99.90;;;;;;5014832;28;20612;-76
2020/12/11 03:44:20;;;;;;;3.60;1.45;;;4.50;99.90;;;;;;5014630;28;20192;-76
2020/12/11 03:46:46;;;;;;;1.15;1.15;;;4.50;99.90;;;;;;5014474;28;20647;-76
2020/12/11 03:49:12;;;;;;;2.63;1.23;;;4.30;99.90;;;;;;5014663;28;20651;-76
2020/12/11 03:51:38;;;;;;;0.28;0.28;;;4.40;99.90;;;;;;5014694;28;20256;-76
2020/12/11 03:54:04;;;;;;;6.45;2.05;;;4.50;99.90;;;;;;5013173;28;20188;-76
2020/12/11 03:56:30;;;;;;;0.43;0.43;;;4.40;99.90;;;;;;5014379;28;20199;-75
2020/12/11 03:58:56;;;;;;;0.60;0.60;;;4.40;99.90;;;;;;5012892;28;20200;-75
2020/12/11 04:01:21;;;;;;;0.22;0.22;;;4.40;99.90;;;;;;5014206;28;20333;-75
2020/12/11 04:03:47;;;;;;;1.70;1.48;;;4.50;99.90;;;;;;5014238;28;20196;-75
2020/12/11 04:06:14;;;;;;;3.13;1.88;;;4.60;99.90;;;;;;5014095;28;20158;-75
2020/12/11 04:08:40;;;;;;;1.58;1.50;;;4.70;99.90;;;;;;5014129;28;20532;-75
2020/12/11 04:11:07;;;;;;;1.00;0.95;;;4.60;99.90;;;;;;5014127;28;20168;-75
2020/12/11 04:13:33;;;;;;;1.00;1.00;;;4.60;99.90;;;;;;5013781;28;20240;-75
2020/12/11 04:15:59;;;;;;;0.63;0.63;;;4.80;99.90;;;;;;5012752;28;20156;-76
2020/12/11 04:18:25;;;;;;;1.23;1.10;;;4.90;99.90;;;;;;5013867;28;20184;-76
2020/12/11 04:20:51;;;;;;;0.30;0.30;;;4.90;99.90;;;;;;5013937;28;20176;-76
2020/12/11 04:23:16;;;;;;;0.30;0.30;;;4.90;99.90;;;;;;5013872;28;20171;-75
2020/12/11 04:25:42;;;;;;;0.57;0.57;;;4.90;99.90;;;;;;5013769;28;20693;-76
2020/12/11 04:28:08;;;;;;;0.40;0.40;;;4.80;99.90;;;;;;5013725;28;20528;-75
2020/12/11 04:30:33;;;;;;;1.35;1.35;;;4.90;99.90;;;;;;5013385;28;20165;-75
2020/12/11 04:32:59;;;;;;;0.90;0.90;;;5.00;99.90;;;;;;5013666;28;20263;-75
2020/12/11 04:35:24;;;;;;;0.82;0.82;;;5.00;99.90;;;;;;5013602;28;20176;-76
2020/12/11 04:37:51;;;;;;;1.33;1.23;;;5.00;99.90;;;;;;5013550;28;20165;-76
2020/12/11 04:40:17;;;;;;;1.20;0.75;;;5.10;99.90;;;;;;5013414;28;20204;-76
2020/12/11 04:42:45;;;;;;;1.10;1.00;;;4.90;99.90;;;;;;5012409;28;20504;-75
2020/12/11 04:45:11;;;;;;;0.77;0.77;;;4.90;99.90;;;;;;5013454;28;20196;-75
2020/12/11 04:47:44;;;;;;;1.55;1.45;;;4.80;99.90;;;;;;5012188;28;20165;-75
2020/12/11 04:50:11;;;;;;;0.80;0.80;;;4.80;99.90;;;;;;5013414;28;20172;-76
2020/12/11 04:52:41;;;;;;;1.98;1.33;;;5.00;99.90;;;;;;5013452;28;20624;-76
2020/12/11 04:55:13;;;;;;;0.68;0.68;;;5.10;99.90;;;;;;5013274;28;20192;-76
2020/12/11 04:57:51;;;;;;;0.75;0.75;;;5.10;99.90;;;;;;5013233;28;20274;-76
2020/12/11 05:00:19;;;;;;;0.85;0.85;;;5.00;99.90;;;;;;5013203;28;20200;-76
2020/12/11 05:02:45;;;;;;;0.50;0.50;;;4.80;99.90;;;;;;5013429;28;20168;-76
2020/12/11 05:05:13;;;;;;;0.50;0.50;;;5.00;99.90;;;;;;5013255;28;20196;-75
2020/12/11 05:07:40;;;;;;;0.88;0.88;;;5.10;99.90;;;;;;5013314;28;20172;-76
2020/12/11 05:10:06;;;;;;;0.75;0.75;;;5.30;99.90;;;;;;5013220;28;20610;-76
2020/12/11 05:12:35;;;;;;;1.52;1.42;;;5.40;99.90;;;;;;5013261;28;20595;-76
2020/12/11 05:15:08;;;;;;;0.30;0.30;;;5.40;99.90;;;;;;5013202;28;20546;-76
2020/12/11 05:17:36;;;;;;;0.43;0.28;;;5.30;99.90;;;;;;5013134;28;20612;-78
2020/12/11 05:20:07;;;;;;;0.60;0.60;;;5.40;99.90;;;;;;5013383;28;20208;-76
2020/12/11 05:22:35;;;;;;;0.35;0.35;;;5.70;99.90;;;;;;5013076;28;20219;-76
2020/12/11 05:25:02;;;;;;;0.32;0.32;;;5.80;99.90;;;;;;5013153;28;20195;-76
2020/12/11 05:27:35;;;;;;;3.53;1.42;;;5.80;99.90;;;;;;5013055;28;20226;-77
2020/12/11 05:30:07;;;;;;;0.50;0.50;;;5.80;99.90;;;;;;5013081;28;20190;-77
2020/12/11 05:32:41;;;;;;;1.40;0.93;;;5.70;99.90;;;;;;5013001;28;20168;-75
2020/12/11 05:35:31;;;;;;;13.70;0.90;;;5.70;99.90;;;;;;5011734;28;20187;-75
2020/12/11 05:38:03;;;;;;;0.88;0.88;;;5.50;99.90;;;;;;5012911;28;20175;-75
2020/12/11 05:40:37;;;;;;;0.30;0.30;;;5.50;99.90;;;;;;5012868;28;20196;-75
2020/12/11 05:43:15;;;;;;;0.20;0.20;;;5.40;99.90;;;;;;5015413;28;20164;-75
2020/12/11 05:45:54;;;;;;;1.80;1.08;;;5.30;99.90;;;;;;5016716;28;20164;-75
2020/12/11 05:48:22;;;;;;;1.65;0.75;;;5.30;99.90;;;;;;5015406;28;20234;-75
2020/12/11 05:50:48;;;;;;;0.57;0.57;;;5.50;99.90;;;;;;5016452;28;20196;-75
2020/12/11 05:53:13;;;;;;;1.17;0.60;;;5.50;99.90;;;;;;5016425;28;20262;-76
2020/12/11 05:55:39;;;;;;;1.15;1.08;;;5.60;99.90;;;;;;5016546;28;20165;-76
2020/12/11 05:58:08;;;;;;;0.20;0.20;;;5.70;99.90;;;;;;5016140;28;20247;-76
2020/12/11 06:00:34;;;;;;;0.45;0.45;;;5.60;99.90;;;;;;5016211;28;20275;-75
2020/12/11 06:03:01;;;;;;;0.40;0.40;;;5.70;99.90;;;;;;5016292;28;20248;-75
2020/12/11 06:05:27;;;;;;;0.28;0.28;;;5.70;99.90;;;;;;5016273;28;20219;-75
2020/12/11 06:07:53;;;;;;;0.90;0.90;;;5.70;99.90;;;;;;5014916;28;20564;-75
2020/12/11 06:10:23;;;;;;;0.82;0.77;;;5.70;99.90;;;;;;5016340;28;20177;-76
2020/12/11 06:12:49;;;;;;;0.50;0.50;;;5.70;99.90;;;;;;5016215;28;20220;-75
2020/12/11 06:15:21;;;;;;;0.60;0.50;;;5.60;99.90;;;;;;5016104;28;20192;-75
2020/12/11 06:18:25;;;;;;;0.32;0.32;;;5.70;99.90;;;;;;5014770;28;20580;-77
2020/12/11 06:20:53;;;;;;;0.20;0.20;;;5.60;99.90;;;;;;4998138;28;20196;-76
2020/12/11 06:23:29;;;;;;;2.00;1.90;;;5.60;99.90;;;;;;5015976;28;20165;-75
2020/12/11 06:25:56;;;;;;;0.70;0.70;;;5.60;99.90;;;;;;5016203;28;20262;-76
2020/12/11 06:28:34;;;;;;;0.20;0.20;;;5.60;99.90;;;;;;5015738;28;20722;-76
2020/12/11 06:31:00;;;;;;;0.50;0.50;;;5.80;99.90;;;;;;5015685;28;20175;-76
2020/12/11 06:33:30;;;;;;;0.20;0.20;;;5.90;99.90;;;;;;5015555;28;20164;-76
2020/12/11 06:35:57;;;;;;;0.95;0.95;;;5.90;99.90;;;;;;5014569;28;20188;-76
2020/12/11 06:38:46;;;;;;;1.58;0.55;;;6.00;99.90;;;;;;5015580;28;20210;-77
2020/12/11 06:41:13;;;;;;;0.88;0.88;;;5.90;99.90;;;;;;5015797;28;20183;-77
2020/12/11 06:43:39;;;;;;;0.40;0.40;;;6.00;99.90;;;;;;5015773;28;20620;-77
2020/12/11 06:46:15;;;;;;;0.57;0.55;;;6.00;99.90;;;;;;5015228;28;20244;-76
2020/12/11 06:49:08;;;;;;;0.75;0.40;;;5.90;99.90;;;;;;5014066;28;20187;-76
2020/12/11 06:51:56;;;;;;;0.73;0.73;;;5.90;99.90;;;;;;5015062;28;20168;-76
2020/12/11 06:54:21;;;;;;;0.55;0.55;;;5.70;99.90;;;;;;5004609;28;20204;-76
2020/12/11 06:56:58;;;;;;;0.10;0.10;;;5.80;99.90;;;;;;5015056;28;20608;-76
2020/12/11 06:59:25;;;;;;;0.20;0.20;;;6.00;99.90;;;;;;5015008;28;20242;-75
2020/12/11 07:01:52;;;;;;;0.85;0.85;;;5.90;99.90;;;;;;5015383;28;20613;-76
2020/12/11 07:04:18;;;;;;;0.57;0.57;;;5.90;99.90;;;;;;5014887;28;20185;-76
2020/12/11 07:06:51;;;;;;;0.73;0.73;;;6.00;99.90;;;;;;5014593;28;20172;-76
2020/12/11 07:09:17;;;;;;;0.45;0.45;;;5.80;99.90;;;;;;5014688;28;20690;-77
2020/12/11 07:11:43;;;;;;;0.75;0.75;;;5.90;99.90;;;;;;5013408;28;20251;-76
2020/12/11 07:14:10;;;;;;;0.43;0.28;;;5.90;99.90;;;;;;5014694;28;20628;-76
2020/12/11 07:16:40;;;;;;;0.32;0.32;;;5.90;99.90;;;;;;5014816;28;20602;-79
2020/12/11 07:19:07;;;;;;;0.70;0.70;;;5.70;99.90;;;;;;5014049;28;20278;-78
2020/12/11 07:21:33;;;;;;;2.05;1.08;;;5.70;99.90;;;;;;5014042;28;20180;-76
2020/12/11 07:24:00;;;;;;;1.10;1.10;;;5.70;99.90;;;;;;5014622;28;20267;-77
2020/12/11 07:26:26;;;;;;;0.20;0.20;;;5.90;99.90;;;;;;5014855;28;20172;-76
2020/12/11 07:29:07;;;;;;;0.22;0.22;;;6.00;99.90;;;;;;5014302;28;20712;-75
2020/12/11 07:31:40;;;;;;;0.50;0.50;;;6.10;99.90;;;;;;5014144;28;20180;-76
2020/12/11 07:34:13;;;;;;;0.50;0.50;;;6.00;99.90;;;;;;5012870;28;20185;-75
2020/12/11 07:36:39;;;;;;;0.60;0.60;;;5.90;99.90;;;;;;5014226;28;20200;-76
2020/12/11 07:39:13;;;;;;;0.30;0.30;;;6.00;99.90;;;;;;5014011;28;20196;-76
2020/12/11 07:41:44;;;;;;;1.48;0.70;;;6.00;99.90;;;;;;5014205;28;20188;-74
2020/12/11 07:44:10;;;;;;;0.50;0.50;;;6.10;99.90;;;;;;5013936;28;20188;-75
2020/12/11 07:46:45;;;;;;;0.40;0.40;;;6.20;99.90;;;;;;5014185;28;20148;-75
2020/12/11 07:49:11;;;;;;;0.90;0.90;;;6.20;99.90;;;;;;5014011;28;20615;-75
2020/12/11 07:51:46;;;;;;;1.95;0.50;;;6.30;99.90;;;;;;5014045;28;20177;-76
2020/12/11 07:54:12;;;;;;;0.20;0.20;;;6.50;99.90;;;;;;5013782;28;20688;-80
2020/12/11 07:56:38;;;;;;;1.02;1.02;;;6.50;99.90;;;;;;5011909;28;20165;-76
2020/12/11 07:59:14;;;;;;;0.30;0.30;;;6.50;99.90;;;;;;5013430;28;20199;-75
2020/12/11 08:01:47;;;;;;;0.20;0.20;;;6.30;99.90;;;;;;5013907;28;20259;-75
2020/12/11 08:04:15;;;;;;;0.30;0.30;;;6.30;99.90;;;;;;5013340;28;20200;-76
2020/12/11 08:06:41;;;;;;;0.65;0.65;;;6.30;99.90;;;;;;5013704;28;20194;-83
2020/12/11 08:09:13;;;;;;;0.20;0.20;;;6.20;99.90;;;;;;5005640;28;20177;-76
2020/12/11 08:11:43;;;;;;;0.30;0.30;;;6.20;99.90;;;;;;5012316;28;20209;-76
2020/12/11 08:14:08;;;;;;;0.30;0.30;;;6.30;99.90;;;;;;5013166;28;20196;-75
2020/12/11 08:16:34;;;;;;;0.20;0.20;;;6.30;99.90;;;;;;5013900;28;20297;-77
2020/12/11 08:19:00;;;;;;;0.60;0.60;;;6.20;99.90;;;;;;5013712;28;20193;-77
2020/12/11 08:21:32;;;;;;;1.42;1.25;;;6.20;99.90;;;;;;5012966;28;20339;-77
2020/12/11 08:23:59;;;;;;;0.30;0.30;;;6.30;99.90;;;;;;5013392;28;20283;-76
2020/12/11 08:26:26;;;;;;;1.63;0.32;;;6.20;99.90;;;;;;5013492;28;20604;-77
2020/12/11 08:29:07;;;;;;;0.30;0.30;;;6.20;99.90;;;;;;5013565;28;20172;-76
2020/12/11 08:31:39;;;;;;;0.30;0.30;;;5.90;99.90;;;;;;5012772;28;20180;-77
2020/12/11 08:34:06;;;;;;;0.40;0.40;;;5.80;99.90;;;;;;5013452;28;20684;-77
2020/12/11 08:36:33;;;;;;;4.38;0.65;;;6.00;99.90;;;;;;5012048;28;20566;-75
2020/12/11 08:39:11;;;;;;;0.20;0.20;;;6.00;99.90;;;;;;5011922;28;20207;-75
2020/12/11 08:41:41;;;;;;;0.20;0.20;;;6.10;99.90;;;;;;5011958;28;20226;-76
2020/12/11 08:44:15;;;;;;;0.30;0.30;;;6.10;99.90;;;;;;5012678;28;20557;-77
2020/12/11 08:46:57;;;;;;;0.38;0.38;;;6.10;99.90;;;;;;5012401;28;20174;-77
2020/12/11 08:49:44;;;;;;;0.30;0.30;;;6.10;99.90;;;;;;5012438;28;20168;-75
2020/12/11 08:52:11;;;;;;;0.52;0.52;;;6.30;99.90;;;;;;5014722;28;20251;-76
2020/12/11 08:54:37;;;;;;;0.40;0.40;;;6.40;99.90;;;;;;5015979;28;20200;-77
2020/12/11 08:57:02;;;;;;;0.20;0.20;;;6.40;99.90;;;;;;5012398;28;20169;-76
2020/12/11 08:59:28;;;;;;;2.65;0.88;;;6.40;99.90;;;;;;5011999;28;20607;-75
2020/12/11 09:01:53;;;;;;;0.20;0.20;;;6.40;99.90;;;;;;5012263;28;20176;-78
2020/12/11 09:04:19;;;;;;;0.10;0.10;;;6.30;99.90;;;;;;5012869;28;20200;-78
2020/12/11 09:06:45;;;;;;;0.17;0.17;;;6.20;99.90;;;;;;5011922;28;20196;-77
2020/12/11 09:09:10;;;;;;;1.05;1.05;;;6.10;99.90;;;;;;5011803;28;20259;-77
2020/12/11 09:11:36;;;;;;;0.20;0.20;;;6.20;99.90;;;;;;5011772;28;20663;-78
2020/12/11 09:14:01;;;;;;;0.50;0.50;;;6.20;99.90;;;;;;5011780;28;20189;-78
2020/12/11 09:16:27;;;;;;;0.70;0.70;;;6.30;99.90;;;;;;5012057;28;20522;-75
2020/12/11 09:18:53;;;;;;;1.45;0.55;;;6.40;99.90;;;;;;5016586;28;20211;-79
2020/12/11 09:21:18;;;;;;;4.90;0.75;;;6.40;99.90;;;;;;5016045;28;20164;-78
2020/12/11 09:23:44;;;;;;;0.98;0.47;;;6.20;99.90;;;;;;5015472;28;20212;-77
2020/12/11 09:26:10;;;;;;;0.68;0.68;;;6.30;99.90;;;;;;5014309;28;20169;-77
2020/12/11 09:28:36;;;;;;;0.30;0.30;;;6.50;99.90;;;;;;5016001;28;20245;-76
2020/12/11 09:31:02;;;;;;;0.20;0.20;;;6.60;99.90;;;;;;5016111;28;20164;-78
2020/12/11 09:33:29;;;;;;;0.13;0.13;;;6.80;99.90;;;;;;5014917;28;20724;-78
2020/12/11 09:35:55;;;;;;;0.30;0.30;;;6.80;99.90;;;;;;5013270;28;20239;-80
2020/12/11 09:38:21;;;;;;;0.17;0.17;;;6.70;99.90;;;;;;5022718;28;20635;-76
2020/12/11 09:45:52;;;;;;;0.90;0.90;;;6.50;99.90;;;;;;5036003;28;20565;-77
2020/12/11 09:53:37;;;;;;;0.30;0.30;;;6.50;99.90;;;;;;5032013;28;20179;-76
2020/12/11 09:56:02;;;;;;;0.43;0.43;;;6.40;99.90;;;;;;4996768;28;20243;-76
2020/12/11 09:58:27;;;;;;;1.55;0.40;;;6.40;99.90;;;;;;5013941;28;20169;-76
2020/12/11 10:00:53;;;;;;;0.17;0.17;;;6.60;99.90;;;;;;5014653;28;20184;-77
2020/12/11 10:03:22;;;;;;;0.50;0.50;;;6.70;99.90;;;;;;5015407;28;20161;-77
2020/12/11 10:05:48;;;;;;;2.28;0.70;;;6.80;99.90;;;;;;5014865;28;20168;-78
2020/12/11 10:08:14;;;;;;;0.30;0.30;;;6.80;99.90;;;;;;5014621;28;20177;-76
2020/12/11 10:10:39;;;;;;;0.65;0.65;;;6.90;99.90;;;;;;5014349;28;20168;-77
2020/12/11 10:13:06;;;;;;;0.20;0.20;;;6.90;99.90;;;;;;5014756;28;20281;-77
2020/12/11 10:15:33;;;;;;;0.20;0.20;;;7.00;99.90;;;;;;5015024;28;20222;-76
2020/12/11 10:18:02;;;;;;;0.20;0.20;;;7.10;99.90;;;;;;5014955;28;20175;-76
2020/12/11 10:20:27;;;;;;;0.45;0.45;;;7.10;99.90;;;;;;5014627;28;20200;-75
2020/12/11 10:22:53;;;;;;;0.93;0.93;;;7.10;99.90;;;;;;5014929;28;20187;-75
2020/12/11 10:25:19;;;;;;;0.55;0.50;;;7.30;99.90;;;;;;4995762;28;20247;-76
2020/12/11 10:27:45;;;;;;;0.40;0.40;;;7.20;99.90;;;;;;4994292;28;20575;-76
2020/12/11 10:30:11;;;;;;;0.40;0.40;;;7.10;99.90;;;;;;4995260;28;20252;-78
2020/12/11 10:32:37;;;;;;;0.22;0.22;;;7.10;99.90;;;;;;5006508;28;20160;-76
2020/12/11 10:35:04;;;;;;;1.65;0.40;;;7.20;99.90;;;;;;5016373;28;20282;-76
2020/12/11 10:37:30;;;;;;;0.30;0.30;;;7.20;99.90;;;;;;5011867;28;20242;-78
2020/12/11 10:39:55;;;;;;;0.65;0.50;;;7.30;99.90;;;;;;5014084;28;20626;-78
2020/12/11 10:42:21;;;;;;;0.45;0.45;;;7.10;99.90;;;;;;5014405;28;20501;-77
2020/12/11 10:44:46;;;;;;;0.20;0.20;;;7.20;99.90;;;;;;5014381;28;20648;-77
2020/12/11 10:47:12;;;;;;;0.20;0.20;;;7.50;99.90;;;;;;5013517;28;20199;-76
2020/12/11 10:49:39;;;;;;;0.25;0.25;;;7.40;99.90;;;;;;5013600;28;20188;-79
2020/12/11 10:52:04;;;;;;;0.32;0.32;;;7.60;99.90;;;;;;5014586;28;20161;-78
2020/12/11 10:54:30;;;;;;;0.40;0.40;;;7.50;99.90;;;;;;5002533;28;20209;-79
2020/12/11 10:56:56;;;;;;;0.98;0.98;;;7.40;99.90;;;;;;4992306;28;20172;-77
2020/12/11 10:59:22;;;;;;;0.35;0.35;;;7.20;99.90;;;;;;4993181;28;20289;-76
2020/12/11 11:01:49;;;;;;;0.35;0.35;;;7.30;99.90;;;;;;5005092;28;20177;-77
2020/12/11 11:04:15;;;;;;;0.30;0.30;;;7.50;99.90;;;;;;5010742;28;20189;-76
2020/12/11 11:06:48;;;;;;;0.10;0.10;;;7.60;99.90;;;;;;4994753;28;20181;-76
2020/12/11 11:11:46;;;;;;;0.10;0.10;;;7.70;99.90;;;;;;5013872;28;20258;-80
2020/12/11 11:17:08;;;;;;;0.65;0.65;;;7.90;99.90;;;;;;5013822;28;20195;-77
2020/12/11 11:27:45;;;;;;;0.45;0.45;;;7.50;99.90;;;;;;5014024;28;20237;-78
2020/12/11 11:30:10;;;;;;;0.25;0.25;;;7.80;99.90;;;;;;5012451;28;20180;-75
2020/12/11 11:32:36;;;;;;;0.20;0.20;;;8.00;99.90;;;;;;5013659;28;20165;-76
2020/12/11 11:35:03;;;;;;;0.55;0.55;;;7.90;99.90;;;;;;5012459;28;20283;-77
2020/12/11 11:37:29;;;;;;;0.45;0.45;;;8.00;99.90;;;;;;5012780;28;20608;-77
2020/12/11 11:39:55;;;;;;;0.20;0.20;;;8.20;99.90;;;;;;5010749;28;20196;-78
2020/12/11 11:42:21;;;;;;;0.20;0.20;;;8.10;99.90;;;;;;5013295;28;20161;-74
2020/12/11 11:45:02;;;;;;;0.15;0.15;;;7.90;99.90;;;;;;5013331;28;20199;-79
2020/12/11 11:47:28;;;;;;;0.70;0.70;;;8.00;99.90;;;;;;5013157;28;20171;-82
2020/12/11 11:54:48;;;;;;;0.82;0.82;;;8.00;99.90;;;;;;5013165;28;20299;-77
2020/12/11 11:57:13;;;;;;;0.43;0.43;;;8.00;99.90;;;;;;5012794;28;20277;-75
2020/12/11 11:59:39;;;;;;;0.38;0.38;;;7.90;99.90;;;;;;5012343;28;20196;-75
2020/12/11 12:02:05;;;;;;;0.20;0.20;;;8.00;99.90;;;;;;5008917;28;20169;-77
2020/12/11 12:04:30;;;;;;;0.55;0.55;;;7.90;99.90;;;;;;5010850;28;20223;-76
2020/12/11 12:06:56;;;;;;;0.75;0.75;;;7.90;99.90;;;;;;5010718;28;20177;-77
2020/12/11 12:09:22;;;;;;;0.38;0.38;;;7.90;99.90;;;;;;5011640;28;20259;-76
2020/12/11 12:11:47;;;;;;;0.40;0.40;;;7.80;99.90;;;;;;5012543;28;20614;-77
2020/12/11 12:14:13;;;;;;;0.30;0.30;;;7.70;99.90;;;;;;5012722;28;20200;-79
2020/12/11 12:16:40;;;;;;;0.38;0.38;;;7.80;99.90;;;;;;5012333;28;20165;-79
2020/12/11 12:19:11;;;;;;;0.25;0.25;;;7.90;99.90;;;;;;5012308;28;20267;-78
2020/12/11 12:22:38;;;;;;;0.10;0.10;;;8.10;99.90;;;;;;5012597;28;20169;-77
2020/12/11 12:29:33;;;;;;;0.95;0.88;;;7.90;99.90;;;;;;5012203;28;20552;-77
2020/12/11 12:32:05;;;;;;;0.52;0.52;;;7.80;99.90;;;;;;5012373;28;20173;-77
2020/12/11 12:45:04;;;;;;;1.25;0.90;;;8.00;99.90;;;;;;5012314;28;20575;-76
2020/12/11 12:47:30;;;;;;;0.17;0.17;;;8.20;99.90;;;;;;5012538;28;20248;-76
2020/12/11 12:49:56;;;;;;;0.93;0.93;;;8.20;99.90;;;;;;5011670;28;20243;-78
2020/12/11 12:52:21;;;;;;;0.70;0.70;;;8.10;99.90;;;;;;5012295;28;20200;-78
2020/12/11 12:54:47;;;;;;;0.20;0.20;;;8.00;99.90;;;;;;5012281;28;20196;-78
2020/12/11 12:57:23;;;;;;;0.20;0.20;;;8.10;99.90;;;;;;5012303;28;20172;-78
2020/12/11 13:04:53;;;;;;;1.27;1.20;;;8.10;99.90;;;;;;5012286;28;20621;-76
2020/12/11 13:07:19;;;;;;;0.20;0.20;;;8.20;99.90;;;;;;5012212;28;20175;-76
2020/12/11 13:09:45;;;;;;;0.35;0.35;;;8.40;99.90;;;;;;5011158;28;20540;-78
2020/12/11 13:12:11;;;;;;;0.50;0.50;;;8.30;99.90;;;;;;5011780;28;20223;-76
2020/12/11 13:14:36;;;;;;;0.43;0.43;;;8.40;99.90;;;;;;5012005;28;20231;-77
2020/12/11 13:17:03;;;;;;;0.20;0.20;;;8.30;99.90;;;;;;5012119;28;20168;-78
2020/12/11 13:19:30;;;;;;;0.30;0.30;;;8.40;99.90;;;;;;5011808;28;20193;-77
2020/12/11 13:22:17;;;;;;;0.60;0.60;;;8.50;99.90;;;;;;5011598;28;20183;-76
2020/12/11 13:27:29;;;;;;;0.55;0.55;;;8.50;99.90;;;;;;5011755;28;20219;-77
2020/12/11 13:29:55;;;;;;;2.05;0.65;;;8.50;99.90;;;;;;5011380;28;20161;-77
2020/12/11 13:32:21;;;;;;;0.52;0.52;;;8.50;99.90;;;;;;5011589;28;20163;-77
2020/12/11 13:34:47;;;;;;;0.30;0.30;;;8.40;99.90;;;;;;5012425;28;20188;-78
2020/12/11 13:37:13;;;;;;;0.30;0.30;;;8.30;99.90;;;;;;5011705;28;20254;-75
2020/12/11 13:39:39;;;;;;;0.30;0.30;;;8.40;99.90;;;;;;5009970;28;20652;-77
2020/12/11 13:42:05;;;;;;;0.63;0.63;;;8.30;99.90;;;;;;5011320;28;20161;-78
2020/12/11 13:44:31;;;;;;;0.43;0.43;;;8.20;99.90;;;;;;5011797;28;20192;-77
2020/12/11 13:46:56;;;;;;;0.40;0.40;;;8.10;99.90;;;;;;5011537;28;20628;-78
2020/12/11 13:49:22;;;;;;;0.22;0.22;;;8.20;99.90;;;;;;5011770;28;20153;-75
2020/12/11 13:51:48;;;;;;;0.47;0.47;;;8.20;99.90;;;;;;5013229;28;20242;-75